createdAt,value
2019-05-01T00:02:12.160Z,5.30
2019-05-01T00:04:52.898Z,2.93
2019-05-01T00:07:34.537Z,3.07
2019-05-01T00:10:04.535Z,2.53
2019-05-01T00:12:34.351Z,4.37
2019-05-01T00:15:04.259Z,2.77
2019-05-01T00:17:34.376Z,3.00
2019-05-01T00:20:04.117Z,2.83
2019-05-01T00:22:33.729Z,3.80
2019-05-01T00:25:03.391Z,4.23
2019-05-01T00:27:33.011Z,3.03
2019-05-01T00:30:02.664Z,2.63
2019-05-01T00:32:32.391Z,4.50
2019-05-01T00:35:02.052Z,3.57
2019-05-01T00:37:31.647Z,3.03
2019-05-01T00:40:01.263Z,3.13
2019-05-01T00:42:30.919Z,2.53
2019-05-01T00:45:00.527Z,2.93
2019-05-01T00:47:30.152Z,4.37
2019-05-01T00:49:59.825Z,2.53
2019-05-01T00:52:29.604Z,3.00
2019-05-01T00:55:30.260Z,3.93
2019-05-01T00:58:21.775Z,2.27
2019-05-01T01:01:08.988Z,2.50
2019-05-01T01:03:39.547Z,4.27
2019-05-01T01:06:09.363Z,4.40
2019-05-01T01:08:38.992Z,3.53
2019-05-01T01:11:08.756Z,2.87
2019-05-01T01:13:38.396Z,4.23
2019-05-01T01:16:08.016Z,3.63
2019-05-01T01:18:37.623Z,3.40
2019-05-01T01:21:07.319Z,3.23
2019-05-01T01:23:37.345Z,3.70
2019-05-01T01:26:07.778Z,3.53
2019-05-01T01:28:37.479Z,3.13
2019-05-01T01:31:07.111Z,4.63
2019-05-01T01:33:36.780Z,8.80
2019-05-01T01:36:06.401Z,3.17
2019-05-01T01:38:36.109Z,3.17
2019-05-01T01:41:05.940Z,4.57
2019-05-01T01:44:03.857Z,2.83
2019-05-01T01:46:34.777Z,2.03
2019-05-01T01:49:04.596Z,4.87
2019-05-01T01:51:34.273Z,4.50
2019-05-01T01:54:04.487Z,3.47
2019-05-01T01:56:34.335Z,5.67
2019-05-01T01:59:04.063Z,3.63
2019-05-01T02:01:48.433Z,4.97
2019-05-01T02:04:32.941Z,4.37
2019-05-01T02:07:02.566Z,2.93
2019-05-01T02:09:32.239Z,2.90
2019-05-01T02:12:02.024Z,2.63
2019-05-01T02:14:31.649Z,2.53
2019-05-01T02:17:01.289Z,3.47
2019-05-01T02:19:30.915Z,4.67
2019-05-01T02:22:00.604Z,4.77
2019-05-01T02:24:30.258Z,3.00
2019-05-01T02:27:01.864Z,5.73
2019-05-01T02:29:38.426Z,2.50
2019-05-01T02:32:08.372Z,3.17
2019-05-01T02:34:39.436Z,2.30
2019-05-01T02:37:11.713Z,2.60
2019-05-01T02:39:42.826Z,3.57
2019-05-01T02:42:15.279Z,5.10
2019-05-01T02:44:49.672Z,3.73
2019-05-01T02:47:32.324Z,4.20
2019-05-01T02:50:12.228Z,3.97
2019-05-01T02:52:44.188Z,6.80
2019-05-01T02:55:22.957Z,2.90
2019-05-01T02:57:52.697Z,2.43
2019-05-01T03:00:22.499Z,2.13
2019-05-01T03:02:52.567Z,3.40
2019-05-01T03:05:22.432Z,3.63
2019-05-01T03:07:52.199Z,3.60
2019-05-01T03:10:22.521Z,2.37
2019-05-01T03:12:54.406Z,2.90
2019-05-01T03:15:26.032Z,4.37
2019-05-01T03:18:13.065Z,2.53
2019-05-01T03:21:05.158Z,2.57
2019-05-01T03:23:41.593Z,3.97
2019-05-01T03:26:11.325Z,2.27
2019-05-01T03:28:41.111Z,4.10
2019-05-01T03:31:10.937Z,2.67
2019-05-01T03:33:40.777Z,2.23
2019-05-01T03:36:10.569Z,6.63
2019-05-01T03:38:40.483Z,2.70
2019-05-01T03:41:10.766Z,3.17
2019-05-01T03:43:41.229Z,2.43
2019-05-01T03:46:11.690Z,3.77
2019-05-01T03:48:42.137Z,4.07
2019-05-01T03:51:11.983Z,5.17
2019-05-01T03:53:42.238Z,3.53
2019-05-01T03:56:12.355Z,2.03
2019-05-01T03:58:42.313Z,3.87
2019-05-01T04:01:30.262Z,3.67
2019-05-01T04:04:06.663Z,1.97
2019-05-01T04:06:37.469Z,5.80
2019-05-01T04:09:08.361Z,5.87
2019-05-01T04:11:38.173Z,4.23
2019-05-01T04:14:07.983Z,2.83
2019-05-01T04:16:38.061Z,1.90
2019-05-01T04:19:08.394Z,2.90
2019-05-01T04:21:46.204Z,2.30
2019-05-01T04:24:16.124Z,8.43
2019-05-01T04:26:46.351Z,2.47
2019-05-01T04:29:41.097Z,4.43
2019-05-01T04:32:51.095Z,2.07
2019-05-01T04:35:26.538Z,3.17
2019-05-01T04:37:58.444Z,5.13
2019-05-01T04:40:28.164Z,4.27
2019-05-01T04:42:58.155Z,3.03
2019-05-01T04:45:28.925Z,7.00
2019-05-01T04:47:58.619Z,3.33
2019-05-01T04:50:28.745Z,4.10
2019-05-01T04:52:59.293Z,3.70
2019-05-01T04:55:29.275Z,2.97
2019-05-01T04:57:59.227Z,2.93
2019-05-01T05:00:29.247Z,3.93
2019-05-01T05:03:05.787Z,3.23
2019-05-01T05:05:36.045Z,2.73
2019-05-01T05:08:05.774Z,2.30
2019-05-01T05:10:35.653Z,2.10
2019-05-01T05:13:33.678Z,2.60
2019-05-01T05:16:09.004Z,2.50
2019-05-01T05:18:38.941Z,4.37
2019-05-01T05:21:09.188Z,4.87
2019-05-01T05:23:39.376Z,1.80
2019-05-01T05:26:09.762Z,1.93
2019-05-01T05:28:40.633Z,3.80
2019-05-01T05:31:11.600Z,2.60
2019-05-01T05:33:42.826Z,2.30
2019-05-01T05:36:14.146Z,2.70
2019-05-01T05:38:51.188Z,3.10
2019-05-01T05:41:22.323Z,3.60
2019-05-01T05:43:52.368Z,2.20
2019-05-01T05:46:22.012Z,4.27
2019-05-01T05:48:51.627Z,3.20
2019-05-01T05:51:51.052Z,4.70
2019-05-01T05:54:41.380Z,5.93
2019-05-01T05:57:29.884Z,5.40
2019-05-01T06:00:09.915Z,6.23
2019-05-01T06:02:49.306Z,4.83
2019-05-01T06:05:43.452Z,4.73
2019-05-01T06:08:26.764Z,5.67
2019-05-01T06:11:16.214Z,5.93
2019-05-01T06:14:20.192Z,5.83
2019-05-01T06:17:17.833Z,4.97
2019-05-01T06:19:54.489Z,8.40
2019-05-01T06:22:55.805Z,8.23
2019-05-01T06:25:29.547Z,4.03
2019-05-01T06:27:59.760Z,5.33
2019-05-01T06:30:29.879Z,5.40
2019-05-01T06:33:03.986Z,9.00
2019-05-01T06:35:34.139Z,6.57
2019-05-01T06:38:06.452Z,3.10
2019-05-01T06:40:44.825Z,6.50
2019-05-01T06:43:37.090Z,4.67
2019-05-01T06:46:27.230Z,5.77
2019-05-01T06:49:06.631Z,5.17
2019-05-01T06:52:00.252Z,5.67
2019-05-01T06:54:32.282Z,7.33
2019-05-01T06:57:03.813Z,7.30
2019-05-01T06:59:34.452Z,5.87
2019-05-01T07:02:04.279Z,4.27
2019-05-01T07:04:37.948Z,6.70
2019-05-01T07:07:25.146Z,7.63
2019-05-01T07:09:51.056Z,5.53
2019-05-01T07:12:23.813Z,4.03
2019-05-01T07:14:53.974Z,5.57
2019-05-01T07:17:23.984Z,5.80
2019-05-01T07:20:11.982Z,7.30
2019-05-01T07:22:42.354Z,9.50
2019-05-01T07:25:12.333Z,9.97
2019-05-01T07:27:41.948Z,7.30
2019-05-01T07:30:20.963Z,7.37
2019-05-01T07:32:50.783Z,8.83
2019-05-01T07:35:20.660Z,7.20
2019-05-01T07:37:50.291Z,6.87
2019-05-01T07:40:28.814Z,9.07
2019-05-01T07:42:55.899Z,10.47
2019-05-01T07:45:43.141Z,10.83
2019-05-01T07:48:10.652Z,10.33
2019-05-01T07:50:40.668Z,13.70
2019-05-01T07:53:10.540Z,10.10
2019-05-01T07:55:40.486Z,10.80
2019-05-01T07:58:16.059Z,9.83
2019-05-01T08:01:12.983Z,10.73
2019-05-01T08:03:44.114Z,12.30
2019-05-01T08:06:16.331Z,10.70
2019-05-01T08:08:45.194Z,13.67
2019-05-01T08:11:14.805Z,8.30
2019-05-01T08:13:44.429Z,9.10
2019-05-01T08:16:14.517Z,9.20
2019-05-01T08:18:49.696Z,11.20
2019-05-01T08:21:38.234Z,10.50
2019-05-01T08:24:10.149Z,13.63
2019-05-01T08:26:44.244Z,13.13
2019-05-01T08:29:30.060Z,12.90
2019-05-01T08:32:24.857Z,14.53
2019-05-01T08:35:00.556Z,14.37
2019-05-01T08:37:29.135Z,11.27
2019-05-01T08:39:58.872Z,12.17
2019-05-01T08:42:28.487Z,11.17
2019-05-01T08:45:17.039Z,14.03
2019-05-01T08:47:50.571Z,11.17
2019-05-01T08:50:24.702Z,12.67
2019-05-01T08:52:52.544Z,13.63
2019-05-01T08:55:22.283Z,10.60
2019-05-01T08:57:51.947Z,13.90
2019-05-01T09:00:21.729Z,13.97
2019-05-01T09:03:07.363Z,12.27
2019-05-01T09:05:30.363Z,12.93
2019-05-01T09:07:57.742Z,12.30
2019-05-01T09:10:27.620Z,12.33
2019-05-01T09:12:57.267Z,15.57
2019-05-01T09:15:26.900Z,10.97
2019-05-01T09:17:56.660Z,12.53
2019-05-01T09:20:26.420Z,11.10
2019-05-01T09:22:56.044Z,12.67
2019-05-01T09:25:35.274Z,10.70
2019-05-01T09:28:12.060Z,11.33
2019-05-01T09:30:52.868Z,12.03
2019-05-01T09:33:26.179Z,12.00
2019-05-01T09:35:53.802Z,12.47
2019-05-01T09:38:23.659Z,10.00
2019-05-01T09:40:53.292Z,9.93
2019-05-01T09:43:23.000Z,12.03
2019-05-01T09:45:52.743Z,8.33
2019-05-01T09:48:22.569Z,10.77
2019-05-01T09:51:00.923Z,10.70
2019-05-01T09:53:41.241Z,11.20
2019-05-01T09:56:29.855Z,10.27
2019-05-01T09:58:59.601Z,8.17
2019-05-01T10:01:32.828Z,9.80
2019-05-01T10:04:00.621Z,10.60
2019-05-01T10:06:30.244Z,11.27
2019-05-01T10:08:59.205Z,8.47
2019-05-01T10:11:29.102Z,11.13
2019-05-01T10:13:59.742Z,8.43
2019-05-01T10:16:29.823Z,9.87
2019-05-01T10:18:59.515Z,8.90
2019-05-01T10:21:29.129Z,7.37
2019-05-01T10:23:58.837Z,9.60
2019-05-01T10:26:30.081Z,8.23
2019-05-01T10:29:27.700Z,8.53
2019-05-01T10:32:05.120Z,7.13
2019-05-01T10:34:48.699Z,9.20
2019-05-01T10:37:18.346Z,8.47
2019-05-01T10:39:50.189Z,8.43
2019-05-01T10:42:19.380Z,10.03
2019-05-01T10:44:49.068Z,9.13
2019-05-01T10:47:18.852Z,9.33
2019-05-01T10:49:50.429Z,7.17
2019-05-01T10:52:20.112Z,6.93
2019-05-01T10:54:49.811Z,12.03
2019-05-01T10:57:19.469Z,6.53
2019-05-01T10:59:49.151Z,12.13
2019-05-01T11:02:19.651Z,9.30
2019-05-01T11:04:49.783Z,9.27
2019-05-01T11:07:19.528Z,7.57
2019-05-01T11:09:49.256Z,5.10
2019-05-01T11:12:18.904Z,9.10
2019-05-01T11:14:48.627Z,7.87
2019-05-01T11:17:18.298Z,6.80
2019-05-01T11:19:48.029Z,5.80
2019-05-01T11:22:17.751Z,7.77
2019-05-01T11:24:47.367Z,5.73
2019-05-01T11:27:17.040Z,6.13
2019-05-01T11:29:46.648Z,8.97
2019-05-01T11:32:41.000Z,5.77
2019-05-01T11:35:29.623Z,9.27
2019-05-01T11:38:18.148Z,7.20
2019-05-01T11:40:52.781Z,9.50
2019-05-01T11:43:22.695Z,8.00
2019-05-01T11:45:52.416Z,8.67
2019-05-01T11:48:25.149Z,9.60
2019-05-01T11:50:53.504Z,8.37
2019-05-01T11:53:23.251Z,7.20
2019-05-01T11:55:52.889Z,7.67
2019-05-01T11:58:22.527Z,6.83
2019-05-01T12:00:53.764Z,7.27
2019-05-01T12:03:23.416Z,6.87
2019-05-01T12:05:53.056Z,6.37
2019-05-01T12:08:22.692Z,8.03
2019-05-01T12:10:52.312Z,6.23
2019-05-01T12:13:21.981Z,7.10
2019-05-01T12:15:58.256Z,6.30
2019-05-01T12:18:27.952Z,6.53
2019-05-01T12:20:57.692Z,4.50
2019-05-01T12:23:27.440Z,8.13
2019-05-01T12:25:57.152Z,7.53
2019-05-01T12:28:26.789Z,6.40
2019-05-01T12:30:56.541Z,7.00
2019-05-01T12:33:26.192Z,6.37
2019-05-01T12:35:57.386Z,7.10
2019-05-01T12:38:27.003Z,6.47
2019-05-01T12:41:14.456Z,7.00
2019-05-01T12:43:44.073Z,8.43
2019-05-01T12:46:32.588Z,5.93
2019-05-01T12:49:02.329Z,6.73
2019-05-01T12:51:32.177Z,9.93
2019-05-01T12:54:10.788Z,9.27
2019-05-01T12:56:53.772Z,8.07
2019-05-01T12:59:23.424Z,9.80
2019-05-01T13:01:53.150Z,11.53
2019-05-01T13:04:23.291Z,9.93
2019-05-01T13:06:55.727Z,10.33
2019-05-01T13:09:25.368Z,8.73
2019-05-01T13:11:55.252Z,8.57
2019-05-01T13:14:25.017Z,12.10
2019-05-01T13:16:54.681Z,9.80
2019-05-01T13:19:24.351Z,8.17
2019-05-01T13:21:54.024Z,9.13
2019-05-01T13:24:23.803Z,11.03
2019-05-01T13:27:10.190Z,10.30
2019-05-01T13:29:43.749Z,11.67
2019-05-01T13:32:35.104Z,13.70
2019-05-01T13:35:05.066Z,8.53
2019-05-01T13:37:34.687Z,9.37
2019-05-01T13:40:05.043Z,9.50
2019-05-01T13:42:35.751Z,9.67
2019-05-01T13:45:06.145Z,9.83
2019-05-01T13:47:35.973Z,10.47
2019-05-01T13:50:06.739Z,10.30
2019-05-01T13:52:36.497Z,8.97
2019-05-01T13:55:06.727Z,9.63
2019-05-01T13:57:36.404Z,10.10
2019-05-01T14:00:06.568Z,8.70
2019-05-01T14:02:36.208Z,10.17
2019-05-01T14:05:06.996Z,8.20
2019-05-01T14:07:36.736Z,10.53
2019-05-01T14:10:06.794Z,8.30
2019-05-01T14:12:36.525Z,9.47
2019-05-01T14:15:08.884Z,27.93
2019-05-01T14:17:38.573Z,13.53
2019-05-01T14:20:30.352Z,10.43
2019-05-01T14:23:04.573Z,11.27
2019-05-01T14:25:51.649Z,11.60
2019-05-01T14:28:21.287Z,8.63
2019-05-01T14:30:50.935Z,10.50
2019-05-01T14:33:20.664Z,9.00
2019-05-01T14:35:50.452Z,7.27
2019-05-01T14:38:20.161Z,8.47
2019-05-01T14:40:49.744Z,11.67
2019-05-01T14:43:19.428Z,9.33
2019-05-01T14:45:49.100Z,7.70
2019-05-01T14:48:18.776Z,30.30
2019-05-01T14:50:48.424Z,31.10
2019-05-01T14:53:18.060Z,22.83
2019-05-01T14:55:47.750Z,10.10
2019-05-01T14:58:17.456Z,7.73
2019-05-01T15:00:47.084Z,6.60
2019-05-01T15:03:16.747Z,6.47
2019-05-01T15:05:46.423Z,5.33
2019-05-01T15:08:16.039Z,6.37
2019-05-01T15:10:45.669Z,6.83
2019-05-01T15:13:25.607Z,3.93
2019-05-01T15:16:13.592Z,3.70
2019-05-01T15:19:05.184Z,5.37
2019-05-01T15:21:34.860Z,6.33
2019-05-01T15:24:05.118Z,7.20
2019-05-01T15:26:34.776Z,5.23
2019-05-01T15:29:05.046Z,3.40
2019-05-01T15:31:34.706Z,6.00
2019-05-01T15:34:04.639Z,6.73
2019-05-01T15:36:34.276Z,6.47
2019-05-01T15:39:07.297Z,6.43
2019-05-01T15:41:58.596Z,8.97
2019-05-01T15:44:31.246Z,8.00
2019-05-01T15:47:00.902Z,11.17
2019-05-01T15:49:30.540Z,9.83
2019-05-01T15:52:00.168Z,11.63
2019-05-01T15:54:29.803Z,13.87
2019-05-01T15:56:59.440Z,12.73
2019-05-01T15:59:29.077Z,11.23
2019-05-01T16:01:58.771Z,14.90
2019-05-01T16:04:28.517Z,10.80
2019-05-01T16:06:58.209Z,12.50
2019-05-01T16:09:27.849Z,13.83
2019-05-01T16:12:14.366Z,14.87
2019-05-01T16:14:49.048Z,17.03
2019-05-01T16:17:18.709Z,15.00
2019-05-01T16:19:48.391Z,16.20
2019-05-01T16:22:18.285Z,15.33
2019-05-01T16:24:47.916Z,18.63
2019-05-01T16:27:17.558Z,17.03
2019-05-01T16:29:47.258Z,20.07
2019-05-01T16:32:16.889Z,17.73
2019-05-01T16:34:46.680Z,19.13
2019-05-01T16:37:16.392Z,19.30
2019-05-01T16:40:01.197Z,21.73
2019-05-01T16:42:43.050Z,20.10
2019-05-01T16:45:14.699Z,17.57
2019-05-01T16:47:44.332Z,17.83
2019-05-01T16:50:14.132Z,21.00
2019-05-01T16:52:44.684Z,25.53
2019-05-01T16:55:15.425Z,24.30
2019-05-01T16:57:45.072Z,24.00
2019-05-01T17:00:15.214Z,26.27
2019-05-01T17:03:01.787Z,27.53
2019-05-01T17:05:50.300Z,26.73
2019-05-01T17:08:50.728Z,27.93
2019-05-01T17:11:24.481Z,30.30
2019-05-01T17:13:54.140Z,26.17
2019-05-01T17:16:23.768Z,25.73
2019-05-01T17:18:53.404Z,28.57
2019-05-01T17:21:23.091Z,29.13
2019-05-01T17:23:52.719Z,31.33
2019-05-01T17:26:22.644Z,25.83
2019-05-01T17:28:54.345Z,30.57
2019-05-01T17:31:26.039Z,33.23
2019-05-01T17:33:56.808Z,33.97
2019-05-01T17:36:27.016Z,29.17
2019-05-01T17:38:56.785Z,31.40
2019-05-01T17:41:27.230Z,24.97
2019-05-01T17:43:57.716Z,29.20
2019-05-01T17:46:27.369Z,31.30
2019-05-01T17:48:57.024Z,30.87
2019-05-01T17:51:26.692Z,33.73
2019-05-01T17:53:56.398Z,30.10
2019-05-01T17:56:28.547Z,26.67
2019-05-01T17:58:57.386Z,29.37
2019-05-01T18:01:38.183Z,30.10
2019-05-01T18:04:42.071Z,33.03
2019-05-01T18:07:11.737Z,31.63
2019-05-01T18:09:41.444Z,30.97
2019-05-01T18:12:11.183Z,29.50
2019-05-01T18:14:40.970Z,26.50
2019-05-01T18:17:10.616Z,30.43
2019-05-01T18:19:40.339Z,30.50
2019-05-01T18:22:21.205Z,36.90
2019-05-01T18:25:22.017Z,30.10
2019-05-01T18:28:00.305Z,27.80
2019-05-01T18:30:40.880Z,33.97
2019-05-01T18:33:10.524Z,30.83
2019-05-01T18:35:40.301Z,31.03
2019-05-01T18:38:38.100Z,31.83
2019-05-01T18:41:26.685Z,33.67
2019-05-01T18:43:56.332Z,31.10
2019-05-01T18:46:26.058Z,30.53
2019-05-01T18:48:55.824Z,34.53
2019-05-01T18:51:25.864Z,27.77
2019-05-01T18:53:57.400Z,30.87
2019-05-01T18:56:26.906Z,28.77
2019-05-01T18:58:56.625Z,32.00
2019-05-01T19:01:26.396Z,34.07
2019-05-01T19:03:56.228Z,30.00
2019-05-01T19:06:25.861Z,31.70
2019-05-01T19:08:55.515Z,29.47
2019-05-01T19:11:25.365Z,29.60
2019-05-01T19:13:55.026Z,30.83
2019-05-01T19:16:24.656Z,30.43
2019-05-01T19:18:54.503Z,28.43
2019-05-01T19:21:24.777Z,28.37
2019-05-01T19:23:54.498Z,23.97
2019-05-01T19:26:24.975Z,27.10
2019-05-01T19:28:54.716Z,24.73
2019-05-01T19:31:24.386Z,24.30
2019-05-01T19:33:54.185Z,24.13
2019-05-01T19:36:23.836Z,29.17
2019-05-01T19:38:53.471Z,26.63
2019-05-01T19:41:23.155Z,23.73
2019-05-01T19:43:52.896Z,23.73
2019-05-01T19:46:22.530Z,28.00
2019-05-01T19:48:52.684Z,26.07
2019-05-01T19:51:23.987Z,23.93
2019-05-01T19:53:53.991Z,25.57
2019-05-01T19:56:23.660Z,27.17
2019-05-01T19:58:53.499Z,24.60
2019-05-01T20:01:23.092Z,22.93
2019-05-01T20:03:52.923Z,24.33
2019-05-01T20:06:22.660Z,23.30
2019-05-01T20:08:52.348Z,26.90
2019-05-01T20:11:22.032Z,21.93
2019-05-01T20:13:51.784Z,27.07
2019-05-01T20:16:21.426Z,27.60
2019-05-01T20:18:51.079Z,25.00
2019-05-01T20:21:20.676Z,27.90
2019-05-01T20:23:50.348Z,26.73
2019-05-01T20:26:19.972Z,24.80
2019-05-01T20:28:49.597Z,25.03
2019-05-01T20:31:20.877Z,26.90
2019-05-01T20:33:50.729Z,21.53
2019-05-01T20:36:20.452Z,24.97
2019-05-01T20:38:50.074Z,20.53
2019-05-01T20:41:19.694Z,24.13
2019-05-01T20:43:49.315Z,21.17
2019-05-01T20:46:21.202Z,22.20
2019-05-01T20:48:50.293Z,22.93
2019-05-01T20:51:20.392Z,21.77
2019-05-01T20:53:50.092Z,20.70
2019-05-01T20:56:37.136Z,18.37
2019-05-01T20:59:06.842Z,21.27
2019-05-01T21:01:36.673Z,20.23
2019-05-01T21:04:43.585Z,20.03
2019-05-01T21:07:19.868Z,20.93
2019-05-01T21:09:56.954Z,21.03
2019-05-01T21:12:20.252Z,19.20
2019-05-01T21:14:50.961Z,23.57
2019-05-01T21:17:20.631Z,20.40
2019-05-01T21:19:50.279Z,19.33
2019-05-01T21:22:19.907Z,22.27
2019-05-01T21:24:49.543Z,24.17
2019-05-01T21:27:19.156Z,24.70
2019-05-01T21:29:48.804Z,25.70
2019-05-01T21:32:25.511Z,28.00
2019-05-01T21:34:49.804Z,30.17
2019-05-01T21:37:19.440Z,33.07
2019-05-01T21:39:49.039Z,29.23
2019-05-01T21:42:18.743Z,29.73
2019-05-01T21:44:48.428Z,29.47
2019-05-01T21:47:18.128Z,28.73
2019-05-01T21:49:47.875Z,27.83
2019-05-01T21:52:17.887Z,35.60
2019-05-01T21:54:50.142Z,33.87
2019-05-01T21:57:20.080Z,38.30
2019-05-01T21:59:49.738Z,39.10
2019-05-01T22:02:19.347Z,39.00
2019-05-01T22:04:49.087Z,32.07
2019-05-01T22:07:19.212Z,30.30
2019-05-01T22:09:50.417Z,31.97
2019-05-01T22:12:20.129Z,29.57
2019-05-01T22:14:56.784Z,30.47
2019-05-01T22:17:48.282Z,28.17
2019-05-01T22:20:22.287Z,29.33
2019-05-01T22:22:56.112Z,31.30
2019-05-01T22:25:33.247Z,29.97
2019-05-01T22:28:18.869Z,27.13
2019-05-01T22:31:06.000Z,31.73
2019-05-01T22:33:37.441Z,31.20
2019-05-01T22:36:07.396Z,35.70
2019-05-01T22:38:37.212Z,26.33
2019-05-01T22:41:10.731Z,30.17
2019-05-01T22:43:40.407Z,32.00
2019-05-01T22:46:16.168Z,28.67
2019-05-01T22:48:45.855Z,30.77
2019-05-01T22:51:24.739Z,31.03
2019-05-01T22:53:57.164Z,31.83
2019-05-01T22:56:26.937Z,31.33
2019-05-01T22:58:56.556Z,31.43
2019-05-01T23:01:27.327Z,32.47
2019-05-01T23:04:05.508Z,32.20
2019-05-01T23:06:37.307Z,31.63
2019-05-01T23:09:10.271Z,45.30
2019-05-01T23:11:42.383Z,37.40
2019-05-01T23:14:12.335Z,63.40
2019-05-01T23:16:48.663Z,87.50
2019-05-01T23:19:18.310Z,50.00
2019-05-01T23:21:50.868Z,51.80
2019-05-01T23:24:19.188Z,53.30
2019-05-01T23:26:51.842Z,44.43
2019-05-01T23:29:20.102Z,70.50
2019-05-01T23:31:49.884Z,49.73
2019-05-01T23:34:21.210Z,70.90
2019-05-01T23:36:50.783Z,50.17
2019-05-01T23:39:20.421Z,76.73
2019-05-01T23:41:50.068Z,76.60
2019-05-01T23:44:19.673Z,92.87
2019-05-01T23:46:49.485Z,64.13
2019-05-01T23:49:19.113Z,64.93
2019-05-01T23:51:48.732Z,57.67
2019-05-01T23:54:18.384Z,59.60
2019-05-01T23:56:48.050Z,65.90
2019-05-01T23:59:17.627Z,87.97
